KSCH/SCH METAR and TAF weather

Enter ICAO airport designator
Station Type Date Time Source
KSCH METAR 2021/08/04 19:47 UTC NOAA

KSCH 041947Z COR 08004KT 10SM CLR 27/12 A3014


Station Type Date Time Source
KSCH Decoded METAR 2021/08/04 19:47 UTC NOAA

Schenectady Airport, NY, United States (KSCH) 42-51N 073-56W
Aug 04, 2021 - 03:47 PM EDT / 2021.08.04 1947 UTC
Wind: from the E (080 degrees) at 5 MPH (4 KT):0
Visibility: 10 mile(s):0
Sky conditions: clear
Temperature: 80 F (27 C)
Dew Point: 53 F (12 C)
Relative Humidity: 39%
Pressure (altimeter): 30.14 in. Hg (1020 hPa)
ob: KSCH 041947Z COR 08004KT 10SM CLR 27/12 A3014
cycle: 20

Station Type Date Time Source
KSCH TAF UTC NOAA

Error!

Example: see airport list